Time;durP1;ratioP1;P1;durP2;ratioP2;P2;SDS_P1;SDS_P2;PMS_P1;PMS_P2;Temp;Humidity;BMP_temperature;BMP_pressure;BME280_temperature;BME280_humidity;BME280_pressure;Samples;Min_cycle;Max_cycle;Signal;HPM_P1;HPM_P2
2022/07/22 04:04:21;;;;;;;5.90;5.40;;;16.90;99.90;;;;;;5587619;22;20466;-64
2022/07/22 04:06:47;;;;;;;6.63;5.93;;;16.90;99.90;;;;;;5014401;28;20425;-66
2022/07/22 04:09:13;;;;;;;7.03;6.27;;;16.90;99.90;;;;;;5013498;28;20217;-67
2022/07/22 04:11:38;;;;;;;8.10;5.83;;;16.90;99.90;;;;;;5014455;28;20591;-67
2022/07/22 04:14:04;;;;;;;6.90;6.30;;;16.90;99.90;;;;;;5013988;28;20194;-68
2022/07/22 04:16:29;;;;;;;6.90;6.20;;;16.90;99.90;;;;;;5010545;28;20281;-67
2022/07/22 04:18:55;;;;;;;8.83;5.73;;;17.00;99.90;;;;;;5012466;28;20214;-68
2022/07/22 04:21:21;;;;;;;7.60;6.83;;;17.00;99.90;;;;;;4995152;28;20172;-68
2022/07/22 04:23:46;;;;;;;6.57;5.97;;;17.00;99.90;;;;;;4994076;28;20187;-68
2022/07/22 04:26:12;;;;;;;6.33;5.73;;;17.00;99.90;;;;;;4994450;28;20185;-67
2022/07/22 04:28:37;;;;;;;9.40;7.50;;;17.00;99.90;;;;;;4994415;28;20602;-65
2022/07/22 04:31:04;;;;;;;8.83;6.10;;;17.00;99.90;;;;;;5007909;28;20191;-67
2022/07/22 04:33:30;;;;;;;10.90;7.53;;;17.00;99.90;;;;;;5012522;28;20276;-67
2022/07/22 04:35:56;;;;;;;6.57;5.87;;;17.00;99.90;;;;;;5013960;28;20450;-66
2022/07/22 04:38:22;;;;;;;8.33;6.43;;;17.20;99.90;;;;;;5014302;28;20473;-68
2022/07/22 04:40:48;;;;;;;7.57;6.20;;;17.20;99.90;;;;;;5014095;28;20406;-66
2022/07/22 04:43:13;;;;;;;7.57;6.90;;;17.30;99.90;;;;;;5013425;28;20216;-67
2022/07/22 04:45:39;;;;;;;6.93;5.87;;;17.40;99.90;;;;;;5000842;28;20271;-65
2022/07/22 04:48:04;;;;;;;6.43;5.77;;;17.40;99.90;;;;;;4994697;28;20530;-66
2022/07/22 04:50:30;;;;;;;6.73;5.80;;;17.50;99.90;;;;;;4994212;28;20226;-70
2022/07/22 04:52:56;;;;;;;7.53;6.83;;;17.70;99.90;;;;;;4993614;28;20279;-66
2022/07/22 04:55:21;;;;;;;13.53;6.43;;;17.90;99.90;;;;;;5013518;28;20193;-67
2022/07/22 04:57:47;;;;;;;6.60;5.90;;;18.10;99.90;;;;;;5013857;28;20534;-68
2022/07/22 05:00:15;;;;;;;6.17;5.57;;;18.20;99.90;;;;;;5011544;28;20242;-66
2022/07/22 05:02:41;;;;;;;6.97;6.30;;;18.40;99.90;;;;;;5000557;28;20221;-68
2022/07/22 05:05:07;;;;;;;7.10;5.60;;;18.50;99.90;;;;;;5013332;28;20453;-68
2022/07/22 05:07:32;;;;;;;7.17;6.57;;;18.70;99.90;;;;;;5013135;28;20175;-68
2022/07/22 05:09:58;;;;;;;7.53;6.53;;;19.10;99.90;;;;;;5013392;28;20409;-66
2022/07/22 05:12:24;;;;;;;6.60;5.87;;;19.30;99.90;;;;;;4994622;28;20183;-67
2022/07/22 05:14:49;;;;;;;6.30;5.70;;;19.40;99.90;;;;;;4992248;28;20575;-68
2022/07/22 05:17:15;;;;;;;5.97;5.37;;;19.40;99.90;;;;;;4993717;28;20183;-70
2022/07/22 05:19:40;;;;;;;6.10;5.60;;;19.40;99.90;;;;;;5005452;28;20245;-67
2022/07/22 05:22:07;;;;;;;6.40;5.80;;;19.50;99.90;;;;;;5013350;28;20167;-68
2022/07/22 05:24:32;;;;;;;6.97;5.83;;;19.60;99.90;;;;;;5013316;28;20269;-66
2022/07/22 05:26:58;;;;;;;7.50;6.60;;;19.70;99.90;;;;;;5008750;28;20504;-66
2022/07/22 05:29:24;;;;;;;6.20;5.40;;;19.80;99.90;;;;;;4995362;28;20203;-69
2022/07/22 05:31:49;;;;;;;6.93;6.23;;;19.80;99.90;;;;;;5003395;28;20177;-68
2022/07/22 05:34:15;;;;;;;7.23;6.43;;;19.80;99.90;;;;;;5010342;28;20312;-66
2022/07/22 05:36:41;;;;;;;6.83;6.13;;;19.80;99.90;;;;;;5013178;28;20229;-64
2022/07/22 05:39:06;;;;;;;7.43;6.60;;;19.90;99.90;;;;;;5013290;28;20642;-66
2022/07/22 05:41:32;;;;;;;8.03;6.57;;;19.90;99.90;;;;;;5000668;28;20186;-65
2022/07/22 05:43:58;;;;;;;7.20;6.50;;;19.80;99.90;;;;;;4996666;28;20586;-65
2022/07/22 05:46:23;;;;;;;7.33;6.70;;;19.80;99.90;;;;;;5013184;28;20175;-65
2022/07/22 05:48:49;;;;;;;6.80;6.10;;;19.70;99.90;;;;;;5012868;28;20258;-68
2022/07/22 05:51:15;;;;;;;7.47;6.30;;;19.80;99.90;;;;;;5012912;28;20187;-67
2022/07/22 05:53:42;;;;;;;7.50;6.80;;;19.90;99.90;;;;;;5012544;28;20270;-66
2022/07/22 05:56:10;;;;;;;8.47;7.53;;;20.00;99.90;;;;;;5013021;28;20260;-66
2022/07/22 05:58:37;;;;;;;8.40;7.13;;;20.20;99.90;;;;;;5014886;28;20410;-66
2022/07/22 06:01:02;;;;;;;8.10;7.30;;;20.20;99.90;;;;;;5017018;28;20402;-65
2022/07/22 06:03:28;;;;;;;9.60;7.20;;;20.20;99.90;;;;;;5016469;28;20440;-65
2022/07/22 06:05:54;;;;;;;9.23;7.83;;;20.30;99.90;;;;;;5016659;28;20191;-65
2022/07/22 06:08:21;;;;;;;7.43;6.70;;;20.50;99.90;;;;;;5016483;28;20179;-66
2022/07/22 06:10:47;;;;;;;7.80;7.00;;;20.60;99.90;;;;;;5016642;28;20410;-64
2022/07/22 06:13:12;;;;;;;7.20;6.47;;;20.70;99.90;;;;;;5015689;28;20455;-64
2022/07/22 06:15:38;;;;;;;6.67;5.90;;;20.90;99.90;;;;;;5016371;28;20570;-64
2022/07/22 06:18:04;;;;;;;9.43;7.20;;;20.90;99.90;;;;;;5016322;28;20182;-65
2022/07/22 06:20:29;;;;;;;8.57;7.73;;;21.00;99.90;;;;;;5016601;28;20171;-64
2022/07/22 06:22:55;;;;;;;8.00;7.20;;;21.10;99.90;;;;;;5016025;28;20178;-64
2022/07/22 06:25:21;;;;;;;8.47;6.30;;;21.20;99.90;;;;;;5017104;28;20176;-64
2022/07/22 06:27:46;;;;;;;7.90;7.10;;;21.40;99.90;;;;;;5014598;28;20225;-64
2022/07/22 06:30:12;;;;;;;10.53;6.70;;;21.50;99.90;;;;;;4996994;28;20259;-65
2022/07/22 06:32:38;;;;;;;10.57;7.17;;;21.60;99.90;;;;;;4996473;28;20257;-65
2022/07/22 06:35:04;;;;;;;7.50;6.60;;;21.70;99.90;;;;;;4996671;28;20461;-65
2022/07/22 06:37:30;;;;;;;10.90;7.07;;;21.80;99.90;;;;;;4996640;28;20215;-65
2022/07/22 06:39:55;;;;;;;6.70;6.17;;;21.80;99.90;;;;;;5004842;28;20466;-67
2022/07/22 06:42:22;;;;;;;7.40;6.70;;;21.70;99.90;;;;;;5013774;28;20171;-64
2022/07/22 06:44:48;;;;;;;7.10;6.43;;;21.70;99.90;;;;;;5013947;28;20248;-64
2022/07/22 06:47:14;;;;;;;6.30;5.70;;;21.70;99.90;;;;;;5002119;28;20434;-65
2022/07/22 06:49:40;;;;;;;7.67;6.97;;;21.80;99.90;;;;;;4994452;28;20417;-65
2022/07/22 06:52:05;;;;;;;6.50;5.90;;;22.00;99.90;;;;;;4994129;28;20173;-72
2022/07/22 06:54:31;;;;;;;8.40;7.00;;;22.20;99.90;;;;;;4994104;28;20255;-65
2022/07/22 06:56:57;;;;;;;7.70;6.30;;;22.30;99.90;;;;;;4996246;28;20210;-63
2022/07/22 06:59:24;;;;;;;6.00;5.43;;;22.40;99.90;;;;;;4996386;28;20504;-65
2022/07/22 07:01:51;;;;;;;10.27;5.93;;;22.50;99.90;;;;;;5006120;28;20403;-65
2022/07/22 07:04:18;;;;;;;5.87;5.37;;;22.70;99.90;;;;;;5015547;28;20433;-65
2022/07/22 07:06:44;;;;;;;8.13;6.60;;;22.80;99.90;;;;;;5015245;28;20447;-65
2022/07/22 07:09:10;;;;;;;8.70;7.80;;;23.00;99.90;;;;;;5015335;28;20387;-64
2022/07/22 07:11:36;;;;;;;6.17;5.57;;;23.00;99.90;;;;;;5015981;28;20378;-66
2022/07/22 07:14:02;;;;;;;7.03;6.40;;;23.10;99.90;;;;;;5015130;28;20249;-64
2022/07/22 07:16:28;;;;;;;9.50;6.70;;;23.10;99.90;;;;;;5004499;28;20492;-64
2022/07/22 07:18:54;;;;;;;8.63;7.73;;;23.20;99.90;;;;;;4995875;28;20466;-65
2022/07/22 07:21:19;;;;;;;8.80;7.20;;;23.20;99.90;;;;;;4995908;28;20496;-65
2022/07/22 07:23:45;;;;;;;9.53;7.40;;;23.20;99.90;;;;;;4995318;28;20195;-66
2022/07/22 07:26:11;;;;;;;7.50;6.60;;;23.20;99.90;;;;;;4995752;28;20182;-65
2022/07/22 07:28:36;;;;;;;8.57;6.17;;;23.40;99.90;;;;;;4995763;28;20203;-65
2022/07/22 07:31:02;;;;;;;7.00;6.40;;;23.50;99.90;;;;;;5003253;28;20202;-65
2022/07/22 07:33:28;;;;;;;6.90;6.17;;;23.60;99.90;;;;;;5014878;28;20198;-66
2022/07/22 07:35:54;;;;;;;6.07;5.57;;;23.80;99.90;;;;;;5015264;28;20443;-66
2022/07/22 07:38:19;;;;;;;6.20;5.70;;;24.00;99.90;;;;;;5015123;28;20198;-66
2022/07/22 07:40:45;;;;;;;6.60;6.00;;;24.50;99.90;;;;;;5014965;28;20183;-65
2022/07/22 07:43:11;;;;;;;7.20;6.40;;;25.20;99.90;;;;;;5014528;28;20175;-66
2022/07/22 07:45:36;;;;;;;7.00;6.30;;;26.20;99.90;;;;;;5008255;28;20167;-66
2022/07/22 07:48:03;;;;;;;7.40;6.80;;;27.10;98.30;;;;;;4993955;28;20233;-63
2022/07/22 07:50:29;;;;;;;7.90;7.10;;;28.10;97.00;;;;;;4995067;28;20179;-64
2022/07/22 07:52:55;;;;;;;6.67;5.97;;;29.20;94.90;;;;;;4994690;28;20422;-64
2022/07/22 07:55:21;;;;;;;7.00;6.40;;;30.20;92.90;;;;;;4995107;28;20214;-64
2022/07/22 07:57:51;;;;;;;6.53;6.00;;;31.40;90.90;;;;;;4993993;28;20419;-67
2022/07/22 08:00:20;;;;;;;5.83;5.40;;;32.40;88.30;;;;;;4996044;28;20822;-65
2022/07/22 08:02:46;;;;;;;6.50;5.90;;;33.50;82.90;;;;;;4997292;28;20410;-65
2022/07/22 08:05:12;;;;;;;7.07;6.57;;;34.50;80.20;;;;;;4994800;28;20454;-66
2022/07/22 08:07:38;;;;;;;7.13;6.63;;;35.30;76.70;;;;;;4995193;28;20171;-67
2022/07/22 08:10:06;;;;;;;6.13;5.63;;;35.90;73.50;;;;;;4994884;28;20818;-66
2022/07/22 08:12:32;;;;;;;7.93;7.40;;;36.10;72.30;;;;;;4994743;28;20407;-66
2022/07/22 08:14:58;;;;;;;7.23;6.73;;;36.50;68.80;;;;;;5000233;28;20539;-66
2022/07/22 08:17:25;;;;;;;7.60;6.90;;;36.50;69.00;;;;;;5014545;28;20441;-66
2022/07/22 08:19:50;;;;;;;7.17;6.57;;;37.00;68.50;;;;;;5011999;28;20717;-67
2022/07/22 08:22:16;;;;;;;7.23;6.73;;;37.30;66.60;;;;;;5012805;28;20509;-68
2022/07/22 08:24:41;;;;;;;8.30;7.60;;;37.50;64.90;;;;;;5014191;28;20199;-67
2022/07/22 08:27:07;;;;;;;6.87;6.37;;;37.50;63.70;;;;;;5014136;28;20174;-67
2022/07/22 08:29:33;;;;;;;5.97;5.47;;;37.50;61.80;;;;;;5014283;28;20229;-66
2022/07/22 08:31:58;;;;;;;6.87;6.37;;;37.60;62.90;;;;;;5014167;28;20175;-68
2022/07/22 08:34:24;;;;;;;7.30;6.60;;;37.90;61.20;;;;;;5008818;28;20277;-69
2022/07/22 08:36:50;;;;;;;7.73;7.20;;;38.20;60.60;;;;;;4994293;28;20211;-68
2022/07/22 08:39:16;;;;;;;7.53;6.80;;;38.30;59.90;;;;;;4994833;28;20188;-68
2022/07/22 08:41:41;;;;;;;6.47;6.07;;;38.30;59.60;;;;;;4995073;28;20175;-67
2022/07/22 08:44:09;;;;;;;8.27;7.67;;;38.60;59.20;;;;;;4994179;28;20203;-67
2022/07/22 08:46:35;;;;;;;7.40;6.90;;;38.70;58.60;;;;;;4993278;28;20218;-66
2022/07/22 08:49:01;;;;;;;8.13;7.37;;;38.40;59.50;;;;;;4994228;28;20438;-67
2022/07/22 08:51:28;;;;;;;7.40;6.80;;;38.40;58.90;;;;;;4997486;28;20453;-65
2022/07/22 08:53:54;;;;;;;7.63;7.03;;;38.20;59.80;;;;;;5013340;28;20944;-65
2022/07/22 08:56:20;;;;;;;7.30;6.80;;;37.80;59.20;;;;;;5013832;28;20864;-70
2022/07/22 08:58:46;;;;;;;7.20;6.70;;;37.80;59.20;;;;;;5013835;28;20488;-65
2022/07/22 09:01:15;;;;;;;7.40;6.90;;;37.80;58.90;;;;;;5013824;28;20174;-66
2022/07/22 09:03:52;;;;;;;6.43;6.03;;;38.20;58.90;;;;;;5013430;28;20203;-67
2022/07/22 09:06:19;;;;;;;7.00;6.50;;;38.50;58.00;;;;;;5009034;28;20442;-67
2022/07/22 09:09:04;;;;;;;7.03;6.63;;;38.60;57.00;;;;;;4993890;28;20415;-68
2022/07/22 09:11:31;;;;;;;6.63;6.13;;;38.50;58.10;;;;;;4994007;28;20549;-68
2022/07/22 09:14:00;;;;;;;6.40;6.00;;;38.60;57.10;;;;;;4993448;28;20434;-66
2022/07/22 09:16:43;;;;;;;7.10;6.70;;;39.10;56.30;;;;;;4993982;28;20462;-67
2022/07/22 09:19:09;;;;;;;7.60;7.10;;;39.40;56.20;;;;;;4994024;28;20465;-65
2022/07/22 09:21:40;;;;;;;7.50;6.83;;;39.40;56.20;;;;;;5002362;28;20426;-67
2022/07/22 09:24:07;;;;;;;6.97;6.47;;;39.60;56.10;;;;;;5012860;28;20476;-67
2022/07/22 09:26:33;;;;;;;7.67;7.17;;;39.30;55.80;;;;;;5013349;28;20417;-66
2022/07/22 09:29:00;;;;;;;6.57;6.17;;;39.30;55.50;;;;;;5013578;28;20409;-67
2022/07/22 09:31:31;;;;;;;7.33;6.83;;;39.20;55.60;;;;;;5012094;28;21044;-68
2022/07/22 09:33:58;;;;;;;7.70;7.20;;;39.10;55.90;;;;;;5016967;28;20445;-67
2022/07/22 09:36:24;;;;;;;6.27;5.87;;;39.10;55.90;;;;;;5017399;28;20488;-67
2022/07/22 09:38:50;;;;;;;7.07;6.57;;;39.20;55.70;;;;;;5017921;28;20410;-67
2022/07/22 09:41:16;;;;;;;8.70;8.10;;;39.50;55.40;;;;;;5017637;28;20413;-67
2022/07/22 09:43:41;;;;;;;7.57;7.07;;;39.70;55.10;;;;;;5015563;28;20202;-68
2022/07/22 09:46:09;;;;;;;6.90;6.30;;;39.40;55.30;;;;;;5007630;28;20489;-67
2022/07/22 09:48:36;;;;;;;7.30;6.80;;;39.30;54.80;;;;;;4997692;28;20187;-67
2022/07/22 09:51:03;;;;;;;7.00;6.40;;;39.60;54.20;;;;;;4997802;28;20779;-69
2022/07/22 09:53:30;;;;;;;9.10;7.40;;;39.60;53.60;;;;;;4997022;28;20431;-67
2022/07/22 09:56:00;;;;;;;7.10;6.60;;;39.40;54.10;;;;;;4997463;28;20466;-67
2022/07/22 09:58:27;;;;;;;6.60;6.20;;;39.70;53.70;;;;;;4997495;28;20414;-66
2022/07/22 10:00:56;;;;;;;6.50;6.10;;;39.80;53.40;;;;;;5006852;28;20425;-67
2022/07/22 10:03:26;;;;;;;6.50;6.10;;;39.70;53.30;;;;;;5016567;28;20947;-68
2022/07/22 10:05:53;;;;;;;6.90;6.50;;;39.90;52.80;;;;;;5016779;28;20441;-68
2022/07/22 10:08:19;;;;;;;7.33;6.87;;;39.90;53.30;;;;;;5016896;28;20413;-66
2022/07/22 10:10:45;;;;;;;7.40;6.80;;;39.80;52.70;;;;;;5016969;28;20563;-66
2022/07/22 10:13:11;;;;;;;6.30;5.90;;;39.80;53.10;;;;;;5016319;28;20877;-68
2022/07/22 10:15:38;;;;;;;5.90;5.50;;;39.60;52.20;;;;;;5006886;28;20235;-70
2022/07/22 10:18:14;;;;;;;6.67;6.23;;;39.80;52.00;;;;;;4997228;28;20261;-66
2022/07/22 10:20:40;;;;;;;9.53;8.73;;;40.20;52.00;;;;;;4996918;28;20418;-66
2022/07/22 10:23:08;;;;;;;6.30;5.90;;;39.80;52.20;;;;;;4996515;28;20421;-66
2022/07/22 10:25:54;;;;;;;7.10;6.67;;;39.80;52.30;;;;;;4997008;28;20180;-70
2022/07/22 10:28:23;;;;;;;7.33;6.73;;;39.80;51.90;;;;;;5011731;28;20448;-67
2022/07/22 10:30:48;;;;;;;7.37;6.87;;;40.00;51.30;;;;;;5003136;28;20430;-64
2022/07/22 10:33:17;;;;;;;6.30;5.90;;;39.80;51.80;;;;;;4996296;28;20492;-66
2022/07/22 10:35:42;;;;;;;6.70;6.20;;;39.70;50.90;;;;;;4996855;28;20249;-66
2022/07/22 10:38:09;;;;;;;6.07;5.60;;;39.60;51.00;;;;;;4996725;28;20922;-65
2022/07/22 10:40:50;;;;;;;6.70;6.20;;;39.30;51.20;;;;;;4996726;28;20187;-65
2022/07/22 10:43:41;;;;;;;6.90;6.40;;;39.10;51.80;;;;;;4994182;28;20427;-65
2022/07/22 10:46:08;;;;;;;5.67;5.30;;;39.10;51.80;;;;;;5015975;28;20460;-65
2022/07/22 10:48:37;;;;;;;7.10;6.50;;;;;;;;;;5016110;28;20409;-66
2022/07/22 10:51:11;;;;;;;5.87;5.47;;;38.60;52.40;;;;;;5016242;28;20476;-65
2022/07/22 10:53:45;;;;;;;6.43;6.00;;;38.30;52.90;;;;;;5015388;28;20788;-65
2022/07/22 10:56:16;;;;;;;6.00;5.53;;;38.10;52.80;;;;;;5016068;28;20519;-67
2022/07/22 10:58:48;;;;;;;6.67;6.17;;;37.90;52.90;;;;;;5015468;28;20976;-68
2022/07/22 11:01:15;;;;;;;7.50;6.80;;;37.60;54.00;;;;;;4996476;28;20502;-66
2022/07/22 11:03:44;;;;;;;6.80;6.30;;;37.60;54.00;;;;;;4995804;28;20438;-68
2022/07/22 11:06:19;;;;;;;7.70;7.07;;;37.80;53.30;;;;;;4996023;28;20526;-66
2022/07/22 11:08:48;;;;;;;6.50;6.00;;;37.70;53.90;;;;;;4996464;28;20500;-67
2022/07/22 11:11:14;;;;;;;6.77;6.17;;;37.50;53.50;;;;;;4996179;28;20838;-67
2022/07/22 11:13:41;;;;;;;6.57;6.07;;;37.30;53.50;;;;;;4995648;28;20780;-67
2022/07/22 11:16:20;;;;;;;6.80;6.30;;;37.30;53.90;;;;;;4996177;28;20453;-67
2022/07/22 11:18:52;;;;;;;5.93;5.53;;;37.10;54.00;;;;;;5010448;28;20512;-67
2022/07/22 11:21:21;;;;;;;7.30;6.70;;;36.70;54.60;;;;;;5015580;28;20464;-65
2022/07/22 11:23:49;;;;;;;6.57;6.07;;;36.10;55.20;;;;;;5014873;28;20405;-68
2022/07/22 11:26:17;;;;;;;8.03;6.70;;;35.30;57.20;;;;;;5015290;28;20426;-66
2022/07/22 11:28:44;;;;;;;6.23;5.73;;;34.70;56.60;;;;;;5015242;28;20424;-66
2022/07/22 11:31:15;;;;;;;6.30;5.80;;;34.00;57.40;;;;;;5015456;28;20754;-66
2022/07/22 11:33:41;;;;;;;6.83;6.33;;;33.20;60.30;;;;;;4997999;28;20430;-65
2022/07/22 11:36:11;;;;;;;6.40;5.83;;;32.70;59.70;;;;;;4995453;28;20454;-66
2022/07/22 11:38:44;;;;;;;6.30;5.80;;;32.30;61.70;;;;;;5004901;28;20254;-67
2022/07/22 11:41:10;;;;;;;6.27;5.80;;;31.80;61.10;;;;;;5005680;28;20380;-66
2022/07/22 11:43:43;;;;;;;6.60;6.00;;;31.50;63.30;;;;;;4997534;28;20531;-65
2022/07/22 11:46:09;;;;;;;6.80;6.20;;;31.20;63.50;;;;;;4995618;28;20489;-66
2022/07/22 11:48:35;;;;;;;5.67;5.13;;;31.00;64.00;;;;;;4995414;28;20409;-68
2022/07/22 11:51:06;;;;;;;5.50;5.10;;;30.80;64.00;;;;;;4997449;28;20407;-65
2022/07/22 11:53:32;;;;;;;6.50;5.40;;;30.80;66.20;;;;;;5002213;28;20232;-66
2022/07/22 11:56:02;;;;;;;7.10;6.50;;;30.60;66.90;;;;;;5002681;28;20485;-66
2022/07/22 11:58:45;;;;;;;6.13;5.63;;;30.60;67.00;;;;;;5004396;28;20406;-66
2022/07/22 12:01:14;;;;;;;5.67;5.17;;;30.50;67.50;;;;;;5002344;28;20412;-72
2022/07/22 12:03:45;;;;;;;6.27;5.77;;;30.50;66.10;;;;;;5011218;28;20496;-69
2022/07/22 12:06:12;;;;;;;5.80;5.30;;;30.50;68.90;;;;;;5014001;28;20773;-68
2022/07/22 12:08:44;;;;;;;5.73;5.30;;;30.60;69.00;;;;;;5013656;28;20497;-68
2022/07/22 12:11:13;;;;;;;9.33;5.90;;;30.70;67.60;;;;;;5014827;28;20421;-67
2022/07/22 12:13:43;;;;;;;6.00;5.43;;;30.90;68.20;;;;;;5014109;28;20429;-68
2022/07/22 12:16:21;;;;;;;7.37;6.60;;;31.00;67.30;;;;;;5012372;28;20455;-68
2022/07/22 12:19:02;;;;;;;6.37;5.77;;;30.90;66.80;;;;;;4994803;28;20753;-68
2022/07/22 12:21:32;;;;;;;6.37;5.80;;;30.90;66.40;;;;;;4995239;28;20414;-68
2022/07/22 12:24:03;;;;;;;6.60;6.10;;;30.90;66.50;;;;;;4992985;28;20460;-69
2022/07/22 12:26:49;;;;;;;6.20;5.27;;;30.80;66.70;;;;;;4994756;28;20401;-69
2022/07/22 12:29:29;;;;;;;6.30;5.80;;;30.70;66.10;;;;;;4993158;28;20440;-68
2022/07/22 12:32:06;;;;;;;6.43;5.83;;;30.60;67.50;;;;;;4996055;28;20426;-68
2022/07/22 12:34:43;;;;;;;6.30;5.80;;;30.60;67.40;;;;;;5013354;28;20458;-68
2022/07/22 12:37:25;;;;;;;5.67;5.27;;;30.60;66.90;;;;;;5002096;28;20472;-71
2022/07/22 12:40:07;;;;;;;5.90;5.40;;;30.60;67.20;;;;;;5014091;28;20377;-70
2022/07/22 12:42:40;;;;;;;6.00;5.50;;;30.60;67.40;;;;;;5013153;28;20405;-69
2022/07/22 12:45:12;;;;;;;6.13;5.53;;;30.60;67.60;;;;;;5013767;28;20405;-70
2022/07/22 12:48:01;;;;;;;6.13;5.53;;;30.60;67.90;;;;;;5011037;28;20972;-75
2022/07/22 12:50:30;;;;;;;6.83;6.30;;;30.60;67.60;;;;;;4994174;28;20446;-69
2022/07/22 12:53:05;;;;;;;6.83;6.13;;;30.60;67.50;;;;;;4993387;28;20873;-68
2022/07/22 12:55:33;;;;;;;6.10;5.60;;;30.70;66.90;;;;;;5005614;28;20447;-67
2022/07/22 12:57:59;;;;;;;5.97;5.40;;;30.70;66.90;;;;;;5003533;28;20504;-68
2022/07/22 13:00:30;;;;;;;5.90;5.40;;;30.70;66.20;;;;;;5005100;28;20463;-66
2022/07/22 13:02:56;;;;;;;5.20;4.70;;;30.70;66.00;;;;;;5013224;28;20414;-66
2022/07/22 13:05:24;;;;;;;7.60;6.30;;;30.70;66.40;;;;;;5001690;28;20511;-67
2022/07/22 13:07:50;;;;;;;5.40;5.00;;;30.70;67.00;;;;;;5000372;28;20822;-67
2022/07/22 13:10:16;;;;;;;5.40;4.80;;;30.80;66.90;;;;;;5010774;28;20474;-68
2022/07/22 13:12:42;;;;;;;5.70;5.20;;;30.90;67.30;;;;;;5008579;28;20416;-68
2022/07/22 13:15:09;;;;;;;6.20;5.70;;;31.10;66.50;;;;;;5009720;28;20432;-69
2022/07/22 13:17:35;;;;;;;6.67;6.00;;;31.10;66.20;;;;;;5000451;28;20431;-66
2022/07/22 13:20:01;;;;;;;4.93;4.57;;;31.10;64.50;;;;;;5013447;28;20410;-67
2022/07/22 13:22:27;;;;;;;6.03;5.53;;;31.10;65.40;;;;;;5012600;28;20925;-67
2022/07/22 13:24:53;;;;;;;5.83;5.23;;;31.00;64.30;;;;;;5013503;28;20408;-67
2022/07/22 13:27:18;;;;;;;5.00;4.60;;;30.90;64.20;;;;;;5013487;28;20562;-67
2022/07/22 13:29:44;;;;;;;5.17;4.70;;;30.80;65.00;;;;;;5013263;28;20665;-66
2022/07/22 13:32:09;;;;;;;6.73;4.87;;;30.80;64.40;;;;;;4995945;28;20183;-66
2022/07/22 13:34:35;;;;;;;6.07;5.57;;;30.80;64.60;;;;;;4993640;28;20253;-66
2022/07/22 13:37:01;;;;;;;5.87;5.30;;;30.80;64.90;;;;;;4993870;28;20623;-66
2022/07/22 13:39:27;;;;;;;5.40;4.87;;;30.80;64.90;;;;;;4993669;28;20171;-67
2022/07/22 13:41:53;;;;;;;5.60;5.20;;;30.80;63.10;;;;;;4993830;28;20411;-66
2022/07/22 13:44:19;;;;;;;5.10;4.70;;;30.90;62.80;;;;;;4993312;28;20489;-66
2022/07/22 13:46:45;;;;;;;5.80;5.30;;;30.90;62.80;;;;;;4996069;28;20190;-66
2022/07/22 13:49:11;;;;;;;5.57;5.13;;;30.90;63.60;;;;;;5000755;28;20210;-66
2022/07/22 13:51:37;;;;;;;5.03;4.63;;;30.90;63.30;;;;;;5013273;28;20747;-66
2022/07/22 13:54:03;;;;;;;5.13;4.73;;;30.90;61.90;;;;;;5012853;28;20416;-67
2022/07/22 13:56:29;;;;;;;5.50;5.03;;;30.90;62.40;;;;;;5013182;28;20198;-66
2022/07/22 13:58:54;;;;;;;4.80;4.33;;;30.90;61.60;;;;;;5012944;28;20667;-66
2022/07/22 14:01:20;;;;;;;5.70;5.20;;;30.90;62.10;;;;;;5011297;28;20298;-66
2022/07/22 14:03:46;;;;;;;5.40;5.00;;;30.90;62.40;;;;;;5012661;28;20198;-67
2022/07/22 14:06:11;;;;;;;4.77;4.37;;;31.00;61.40;;;;;;5012918;28;20716;-67
2022/07/22 14:08:37;;;;;;;5.27;4.87;;;31.00;61.60;;;;;;5013044;28;20261;-67
2022/07/22 14:11:03;;;;;;;5.00;4.60;;;31.00;63.20;;;;;;5013106;28;20206;-65
2022/07/22 14:13:29;;;;;;;4.67;4.27;;;31.10;62.40;;;;;;5012572;28;20429;-65
2022/07/22 14:15:54;;;;;;;5.63;5.00;;;31.10;62.60;;;;;;5000417;28;20683;-66
2022/07/22 14:18:20;;;;;;;5.30;4.83;;;31.20;61.80;;;;;;4994911;28;20172;-67
2022/07/22 14:20:46;;;;;;;5.53;5.13;;;31.20;61.60;;;;;;4997030;28;20176;-66
2022/07/22 14:23:13;;;;;;;5.33;4.83;;;31.10;61.50;;;;;;4996610;28;20175;-67
2022/07/22 14:25:39;;;;;;;5.27;4.87;;;31.20;62.30;;;;;;4996920;28;20211;-67
2022/07/22 14:28:06;;;;;;;4.97;4.50;;;31.20;62.40;;;;;;4997007;28;20422;-67
2022/07/22 14:30:33;;;;;;;5.30;4.90;;;31.30;62.00;;;;;;5006504;28;20507;-65
2022/07/22 14:32:59;;;;;;;5.93;5.43;;;31.30;61.60;;;;;;5015920;28;20438;-66
2022/07/22 14:35:25;;;;;;;4.87;4.47;;;31.30;62.40;;;;;;5016321;28;20432;-66
2022/07/22 14:37:51;;;;;;;4.90;4.50;;;31.20;62.20;;;;;;5016352;28;20406;-66
2022/07/22 14:40:16;;;;;;;5.03;4.63;;;31.20;61.20;;;;;;5016441;28;20203;-66
2022/07/22 14:42:42;;;;;;;5.13;4.63;;;31.20;61.00;;;;;;5015883;28;20179;-66
2022/07/22 14:45:09;;;;;;;4.70;4.30;;;31.20;62.10;;;;;;5005638;28;20199;-66
2022/07/22 14:47:36;;;;;;;5.87;5.27;;;31.20;61.00;;;;;;4996687;28;20222;-66
2022/07/22 14:50:03;;;;;;;5.40;4.90;;;31.10;60.80;;;;;;4996713;28;20564;-66
2022/07/22 14:52:29;;;;;;;5.30;4.90;;;31.10;60.30;;;;;;4996379;28;20398;-67
2022/07/22 14:54:55;;;;;;;5.77;5.17;;;31.10;61.20;;;;;;4996417;28;20437;-66
2022/07/22 14:57:20;;;;;;;6.70;6.10;;;31.10;60.40;;;;;;4996370;28;20178;-66
2022/07/22 14:59:46;;;;;;;5.77;5.23;;;31.10;62.00;;;;;;4996673;28;20167;-66
2022/07/22 15:02:12;;;;;;;5.03;4.63;;;31.10;62.10;;;;;;4996360;28;20282;-66
2022/07/22 15:04:37;;;;;;;5.23;4.83;;;31.10;61.60;;;;;;5015610;28;20233;-66
2022/07/22 15:07:03;;;;;;;5.00;4.67;;;31.10;61.60;;;;;;5016024;28;20218;-67
2022/07/22 15:09:29;;;;;;;6.53;5.00;;;31.20;60.90;;;;;;5016101;28;20178;-66
2022/07/22 15:11:54;;;;;;;5.30;4.80;;;31.20;60.80;;;;;;5015819;28;20583;-66
2022/07/22 15:14:20;;;;;;;6.00;5.50;;;31.20;60.40;;;;;;5015147;28;20495;-66
2022/07/22 15:16:46;;;;;;;5.40;4.80;;;31.20;60.30;;;;;;5016045;28;20202;-67
2022/07/22 15:19:12;;;;;;;4.70;4.30;;;31.20;60.20;;;;;;5015203;28;20190;-66
2022/07/22 15:21:38;;;;;;;7.80;4.60;;;31.30;61.60;;;;;;5015671;28;20229;-67
2022/07/22 15:24:05;;;;;;;5.50;4.70;;;31.20;60.50;;;;;;5015137;28;20539;-66
2022/07/22 15:26:31;;;;;;;6.17;5.67;;;31.30;60.20;;;;;;5015446;28;20388;-67
2022/07/22 15:28:56;;;;;;;5.00;4.60;;;31.20;61.00;;;;;;5015228;28;20410;-66
2022/07/22 15:31:22;;;;;;;5.00;4.70;;;31.30;61.60;;;;;;5011918;28;20254;-65
2022/07/22 15:33:49;;;;;;;5.13;4.73;;;31.30;61.30;;;;;;4997366;28;20206;-66
2022/07/22 15:36:15;;;;;;;5.10;4.80;;;31.30;60.10;;;;;;4997903;28;20234;-65
2022/07/22 15:38:41;;;;;;;5.67;5.27;;;31.20;59.80;;;;;;4995713;28;20887;-65
2022/07/22 15:41:08;;;;;;;4.87;4.37;;;31.20;60.30;;;;;;4996299;28;20167;-65
2022/07/22 15:43:34;;;;;;;5.50;5.00;;;31.20;60.10;;;;;;4996396;28;20199;-65
2022/07/22 15:46:01;;;;;;;4.57;4.20;;;31.10;59.80;;;;;;4996137;28;20411;-65
2022/07/22 15:48:26;;;;;;;5.60;5.07;;;31.10;59.80;;;;;;5000141;28;20549;-66
2022/07/22 15:50:53;;;;;;;5.83;5.43;;;31.10;60.40;;;;;;5013281;28;20889;-67
2022/07/22 15:53:18;;;;;;;4.57;4.20;;;31.20;60.80;;;;;;5005400;28;20210;-67
2022/07/22 15:55:44;;;;;;;5.90;5.30;;;31.20;60.00;;;;;;5010438;28;20489;-67
2022/07/22 16:00:54;;;;;;;5.47;4.97;;;31.10;59.70;;;;;;5014732;28;20193;-65
2022/07/22 16:03:20;;;;;;;4.83;4.43;;;31.20;58.80;;;;;;5006335;28;20425;-66
2022/07/22 16:05:46;;;;;;;5.03;4.63;;;31.20;58.60;;;;;;5000682;28;20479;-66
2022/07/22 16:08:12;;;;;;;5.87;5.37;;;31.20;59.10;;;;;;5012791;28;20269;-68
2022/07/22 16:10:38;;;;;;;5.23;4.80;;;31.10;59.20;;;;;;5005079;28;20186;-66
2022/07/22 16:13:03;;;;;;;5.33;4.93;;;31.20;59.50;;;;;;4994656;28;20188;-66
2022/07/22 16:15:29;;;;;;;5.40;4.90;;;31.10;59.50;;;;;;5003442;28;20199;-66
2022/07/22 16:17:55;;;;;;;4.53;4.13;;;31.20;59.40;;;;;;4994613;28;20176;-68
2022/07/22 16:20:21;;;;;;;4.57;4.27;;;31.20;59.40;;;;;;4995096;28;20184;-67
2022/07/22 16:22:47;;;;;;;5.17;4.77;;;31.20;58.80;;;;;;4994159;28;20223;-65
2022/07/22 16:25:13;;;;;;;5.33;4.83;;;31.20;59.20;;;;;;4995512;28;20545;-67
2022/07/22 16:27:39;;;;;;;5.07;4.57;;;31.20;59.20;;;;;;4994877;28;20509;-68
2022/07/22 16:30:05;;;;;;;4.87;4.47;;;31.20;59.80;;;;;;5000086;28;20658;-69
2022/07/22 16:32:31;;;;;;;5.47;5.07;;;31.10;59.60;;;;;;4996506;28;20543;-68
2022/07/22 16:34:57;;;;;;;5.60;5.10;;;31.10;59.70;;;;;;4994412;28;20427;-67
2022/07/22 16:37:23;;;;;;;4.97;4.57;;;31.10;59.80;;;;;;4994545;28;20222;-68
2022/07/22 16:39:51;;;;;;;5.67;5.17;;;31.00;59.60;;;;;;4994493;28;20210;-68
2022/07/22 16:42:17;;;;;;;4.93;4.47;;;31.10;59.50;;;;;;4993527;28;20171;-68
2022/07/22 16:44:43;;;;;;;5.30;4.90;;;31.10;59.50;;;;;;4993963;28;20416;-66
2022/07/22 16:47:09;;;;;;;4.93;4.53;;;31.20;59.70;;;;;;4994145;28;20266;-68
2022/07/22 16:49:35;;;;;;;5.10;4.70;;;31.20;59.70;;;;;;4995368;28;20513;-68
2022/07/22 16:52:01;;;;;;;4.40;4.10;;;31.30;59.90;;;;;;4992871;28;20183;-68
2022/07/22 16:54:26;;;;;;;4.93;4.47;;;31.40;60.00;;;;;;4993729;28;20408;-65